Aviation Digital Data Service (ADDS)

Output produced by TAFs form (0540 UTC 23 November 2014)
found at http://aviationweather.gov/adds/tafs/
 
KFMN 222340Z 2300/2324 VRB05KT P6SM SCT200 
     FM230300 28006KT P6SM BKN150 
     FM230800 28011G18KT P6SM VCSH SCT070 BKN090 
     FM231300 28011KT P6SM FEW040 SCT100 
     FM231730 29028G36KT P6SM FEW060